sensor_id;sensor_type;location;lat;lon;timestamp;pressure;altitude;pressure_sealevel;temperature;humidity
53300;BME280;39187;48.476;8.310;2023-05-23T00:01:03;91255.81;;;15.01;100.00
53300;BME280;39187;48.476;8.310;2023-05-23T00:03:32;91254.91;;;14.95;100.00
53300;BME280;39187;48.476;8.310;2023-05-23T00:05:59;91257.09;;;14.88;100.00
53300;BME280;39187;48.476;8.310;2023-05-23T00:08:25;91251.28;;;14.89;100.00
53300;BME280;39187;48.476;8.310;2023-05-23T00:10:50;91255.66;;;14.96;100.00
53300;BME280;39187;48.476;8.310;2023-05-23T00:13:16;91255.00;;;14.92;100.00
53300;BME280;39187;48.476;8.310;2023-05-23T00:15:42;91254.84;;;14.86;100.00
53300;BME280;39187;48.476;8.310;2023-05-23T00:18:11;91252.41;;;14.79;100.00
53300;BME280;39187;48.476;8.310;2023-05-23T00:20:37;91249.69;;;14.70;100.00
53300;BME280;39187;48.476;8.310;2023-05-23T00:23:06;91240.16;;;14.69;100.00
53300;BME280;39187;48.476;8.310;2023-05-23T00:25:33;91253.41;;;14.72;100.00
53300;BME280;39187;48.476;8.310;2023-05-23T00:27:59;91259.09;;;14.74;100.00
53300;BME280;39187;48.476;8.310;2023-05-23T00:30:26;91253.56;;;14.69;100.00
53300;BME280;39187;48.476;8.310;2023-05-23T00:32:52;91248.81;;;14.73;100.00
53300;BME280;39187;48.476;8.310;2023-05-23T00:35:19;91257.41;;;14.68;100.00
53300;BME280;39187;48.476;8.310;2023-05-23T00:37:46;91250.28;;;14.65;100.00
53300;BME280;39187;48.476;8.310;2023-05-23T00:40:14;91249.38;;;14.68;100.00
53300;BME280;39187;48.476;8.310;2023-05-23T00:42:40;91254.13;;;14.64;100.00
53300;BME280;39187;48.476;8.310;2023-05-23T00:45:06;91256.44;;;14.53;100.00
53300;BME280;39187;48.476;8.310;2023-05-23T00:47:32;91254.88;;;14.64;100.00
53300;BME280;39187;48.476;8.310;2023-05-23T00:49:58;91258.38;;;14.52;100.00
53300;BME280;39187;48.476;8.310;2023-05-23T00:52:24;91260.44;;;14.35;100.00
53300;BME280;39187;48.476;8.310;2023-05-23T00:54:49;91263.72;;;14.52;100.00
53300;BME280;39187;48.476;8.310;2023-05-23T00:57:15;91259.13;;;14.53;100.00
53300;BME280;39187;48.476;8.310;2023-05-23T00:59:41;91265.53;;;14.55;100.00
53300;BME280;39187;48.476;8.310;2023-05-23T01:02:07;91264.78;;;14.55;100.00
53300;BME280;39187;48.476;8.310;2023-05-23T01:04:34;91261.41;;;14.63;100.00
53300;BME280;39187;48.476;8.310;2023-05-23T01:07:00;91258.84;;;14.60;100.00
53300;BME280;39187;48.476;8.310;2023-05-23T01:09:27;91260.81;;;14.59;100.00
53300;BME280;39187;48.476;8.310;2023-05-23T01:12:07;91261.03;;;14.52;100.00
53300;BME280;39187;48.476;8.310;2023-05-23T01:17:26;91263.94;;;14.67;100.00
53300;BME280;39187;48.476;8.310;2023-05-23T01:19:58;91269.13;;;14.61;100.00
53300;BME280;39187;48.476;8.310;2023-05-23T01:28:04;91255.13;;;14.57;100.00
53300;BME280;39187;48.476;8.310;2023-05-23T01:30:35;91256.63;;;14.58;100.00
53300;BME280;39187;48.476;8.310;2023-05-23T01:33:03;91257.81;;;14.57;100.00
53300;BME280;39187;48.476;8.310;2023-05-23T01:35:30;91268.38;;;14.61;100.00
53300;BME280;39187;48.476;8.310;2023-05-23T01:37:56;91259.16;;;14.62;100.00
53300;BME280;39187;48.476;8.310;2023-05-23T01:40:23;91264.19;;;14.60;100.00
53300;BME280;39187;48.476;8.310;2023-05-23T01:42:49;91264.72;;;14.46;100.00
53300;BME280;39187;48.476;8.310;2023-05-23T01:45:16;91266.97;;;14.34;100.00
53300;BME280;39187;48.476;8.310;2023-05-23T01:47:42;91265.91;;;14.32;100.00
53300;BME280;39187;48.476;8.310;2023-05-23T01:50:09;91261.41;;;14.07;100.00
53300;BME280;39187;48.476;8.310;2023-05-23T01:52:35;91263.09;;;14.14;100.00
53300;BME280;39187;48.476;8.310;2023-05-23T01:55:05;91268.13;;;14.12;100.00
53300;BME280;39187;48.476;8.310;2023-05-23T01:57:35;91262.13;;;14.20;100.00
53300;BME280;39187;48.476;8.310;2023-05-23T02:00:05;91262.16;;;14.08;100.00
53300;BME280;39187;48.476;8.310;2023-05-23T02:02:32;91265.81;;;14.01;100.00
53300;BME280;39187;48.476;8.310;2023-05-23T02:04:58;91268.97;;;14.09;100.00
53300;BME280;39187;48.476;8.310;2023-05-23T02:07:24;91268.66;;;14.19;100.00
53300;BME280;39187;48.476;8.310;2023-05-23T02:09:49;91268.09;;;14.24;100.00
53300;BME280;39187;48.476;8.310;2023-05-23T02:12:15;91261.84;;;14.05;100.00
53300;BME280;39187;48.476;8.310;2023-05-23T02:14:40;91258.59;;;14.11;100.00
53300;BME280;39187;48.476;8.310;2023-05-23T02:17:07;91267.69;;;14.13;100.00
53300;BME280;39187;48.476;8.310;2023-05-23T02:19:34;91268.25;;;14.08;100.00
53300;BME280;39187;48.476;8.310;2023-05-23T02:22:00;91260.84;;;14.12;100.00
53300;BME280;39187;48.476;8.310;2023-05-23T02:24:26;91268.66;;;14.19;100.00
53300;BME280;39187;48.476;8.310;2023-05-23T02:26:51;91271.94;;;13.89;100.00
53300;BME280;39187;48.476;8.310;2023-05-23T02:29:17;91263.66;;;13.96;100.00
53300;BME280;39187;48.476;8.310;2023-05-23T02:31:43;91271.22;;;13.76;100.00
53300;BME280;39187;48.476;8.310;2023-05-23T02:34:08;91271.00;;;13.70;100.00
53300;BME280;39187;48.476;8.310;2023-05-23T02:36:34;91275.06;;;13.75;100.00
53300;BME280;39187;48.476;8.310;2023-05-23T02:39:02;91280.00;;;13.76;100.00
53300;BME280;39187;48.476;8.310;2023-05-23T02:41:28;91274.84;;;13.82;100.00
53300;BME280;39187;48.476;8.310;2023-05-23T02:43:53;91279.25;;;13.76;100.00
53300;BME280;39187;48.476;8.310;2023-05-23T02:46:19;91282.69;;;13.76;100.00
53300;BME280;39187;48.476;8.310;2023-05-23T02:48:45;91284.03;;;13.93;100.00
53300;BME280;39187;48.476;8.310;2023-05-23T02:51:11;91284.22;;;13.99;100.00
53300;BME280;39187;48.476;8.310;2023-05-23T02:53:38;91271.16;;;14.01;100.00
53300;BME280;39187;48.476;8.310;2023-05-23T02:56:04;91268.69;;;14.07;100.00
53300;BME280;39187;48.476;8.310;2023-05-23T02:58:30;91274.59;;;14.01;100.00
53300;BME280;39187;48.476;8.310;2023-05-23T03:00:56;91273.72;;;14.04;100.00
53300;BME280;39187;48.476;8.310;2023-05-23T03:03:22;91271.03;;;14.04;100.00
53300;BME280;39187;48.476;8.310;2023-05-23T03:05:47;91263.75;;;14.05;100.00
53300;BME280;39187;48.476;8.310;2023-05-23T03:08:13;91270.41;;;14.00;100.00
53300;BME280;39187;48.476;8.310;2023-05-23T03:10:38;91268.03;;;14.02;100.00
53300;BME280;39187;48.476;8.310;2023-05-23T03:13:04;91270.41;;;14.00;100.00
53300;BME280;39187;48.476;8.310;2023-05-23T03:15:29;91276.41;;;14.04;100.00
53300;BME280;39187;48.476;8.310;2023-05-23T03:17:55;91277.88;;;14.05;100.00
53300;BME280;39187;48.476;8.310;2023-05-23T03:20:20;91278.91;;;13.86;100.00
53300;BME280;39187;48.476;8.310;2023-05-23T03:22:46;91279.44;;;13.81;100.00
53300;BME280;39187;48.476;8.310;2023-05-23T03:25:14;91287.69;;;13.87;100.00
53300;BME280;39187;48.476;8.310;2023-05-23T03:27:40;91291.84;;;13.88;100.00
53300;BME280;39187;48.476;8.310;2023-05-23T03:30:06;91298.47;;;13.83;100.00
53300;BME280;39187;48.476;8.310;2023-05-23T03:32:32;91291.53;;;13.86;100.00
53300;BME280;39187;48.476;8.310;2023-05-23T03:34:57;91294.84;;;13.77;100.00
53300;BME280;39187;48.476;8.310;2023-05-23T03:37:23;91291.84;;;13.88;100.00
53300;BME280;39187;48.476;8.310;2023-05-23T03:39:48;91291.41;;;13.89;100.00
53300;BME280;39187;48.476;8.310;2023-05-23T03:42:13;91301.34;;;14.01;100.00
53300;BME280;39187;48.476;8.310;2023-05-23T03:44:39;91294.31;;;13.95;100.00
53300;BME280;39187;48.476;8.310;2023-05-23T03:47:04;91293.41;;;14.11;100.00
53300;BME280;39187;48.476;8.310;2023-05-23T03:49:30;91286.44;;;14.13;100.00
53300;BME280;39187;48.476;8.310;2023-05-23T03:51:56;91283.22;;;14.18;100.00
53300;BME280;39187;48.476;8.310;2023-05-23T03:54:21;91275.94;;;14.19;100.00
53300;BME280;39187;48.476;8.310;2023-05-23T03:56:47;91283.97;;;14.19;100.00
53300;BME280;39187;48.476;8.310;2023-05-23T03:59:12;91278.59;;;14.19;100.00
53300;BME280;39187;48.476;8.310;2023-05-23T04:01:38;91276.25;;;14.21;100.00
53300;BME280;39187;48.476;8.310;2023-05-23T04:04:03;91277.72;;;14.22;100.00
53300;BME280;39187;48.476;8.310;2023-05-23T04:06:29;91277.72;;;14.22;100.00
53300;BME280;39187;48.476;8.310;2023-05-23T04:08:56;91278.38;;;14.26;100.00
53300;BME280;39187;48.476;8.310;2023-05-23T04:11:21;91282.22;;;14.25;100.00
53300;BME280;39187;48.476;8.310;2023-05-23T04:13:48;91281.50;;;14.12;100.00
53300;BME280;39187;48.476;8.310;2023-05-23T04:16:13;91273.34;;;14.15;100.00
53300;BME280;39187;48.476;8.310;2023-05-23T04:18:39;91282.78;;;14.20;100.00
53300;BME280;39187;48.476;8.310;2023-05-23T04:21:04;91291.00;;;14.25;100.00
53300;BME280;39187;48.476;8.310;2023-05-23T04:23:30;91288.94;;;14.29;100.00
53300;BME280;39187;48.476;8.310;2023-05-23T04:25:56;91290.50;;;14.18;100.00
53300;BME280;39187;48.476;8.310;2023-05-23T04:28:22;91287.44;;;14.28;100.00
53300;BME280;39187;48.476;8.310;2023-05-23T04:30:47;91288.09;;;14.32;100.00
53300;BME280;39187;48.476;8.310;2023-05-23T04:33:17;91290.78;;;14.32;100.00
53300;BME280;39187;48.476;8.310;2023-05-23T04:35:44;91298.34;;;14.34;100.00
53300;BME280;39187;48.476;8.310;2023-05-23T04:38:09;91293.75;;;14.34;100.00
53300;BME280;39187;48.476;8.310;2023-05-23T04:40:35;91292.91;;;14.37;100.00
53300;BME280;39187;48.476;8.310;2023-05-23T04:43:00;91297.09;;;14.38;100.00
53300;BME280;39187;48.476;8.310;2023-05-23T04:45:26;91303.50;;;14.41;100.00
53300;BME280;39187;48.476;8.310;2023-05-23T04:47:52;91303.81;;;14.43;100.00
53300;BME280;39187;48.476;8.310;2023-05-23T04:50:20;91302.75;;;14.40;100.00
53300;BME280;39187;48.476;8.310;2023-05-23T04:52:47;91307.09;;;14.47;100.00
53300;BME280;39187;48.476;8.310;2023-05-23T04:55:13;91305.06;;;14.51;100.00
53300;BME280;39187;48.476;8.310;2023-05-23T04:57:38;91314.16;;;14.54;100.00
53300;BME280;39187;48.476;8.310;2023-05-23T05:00:05;91307.50;;;14.58;100.00
53300;BME280;39187;48.476;8.310;2023-05-23T05:02:38;91307.44;;;14.49;100.00
53300;BME280;39187;48.476;8.310;2023-05-23T05:05:03;91308.69;;;14.57;100.00
53300;BME280;39187;48.476;8.310;2023-05-23T05:07:29;91319.31;;;14.48;100.00
53300;BME280;39187;48.476;8.310;2023-05-23T05:09:55;91319.78;;;14.47;100.00
53300;BME280;39187;48.476;8.310;2023-05-23T05:12:21;91326.97;;;14.24;100.00
53300;BME280;39187;48.476;8.310;2023-05-23T05:14:47;91318.00;;;14.18;100.00
53300;BME280;39187;48.476;8.310;2023-05-23T05:17:12;91322.00;;;14.35;100.00
53300;BME280;39187;48.476;8.310;2023-05-23T05:19:38;91325.44;;;14.01;100.00
53300;BME280;39187;48.476;8.310;2023-05-23T05:22:03;91330.81;;;13.76;100.00
53300;BME280;39187;48.476;8.310;2023-05-23T05:24:29;91331.31;;;13.96;100.00
53300;BME280;39187;48.476;8.310;2023-05-23T05:26:54;91326.59;;;14.13;100.00
53300;BME280;39187;48.476;8.310;2023-05-23T05:29:20;91337.53;;;14.06;100.00
53300;BME280;39187;48.476;8.310;2023-05-23T05:31:46;91339.88;;;14.04;100.00
53300;BME280;39187;48.476;8.310;2023-05-23T05:34:12;91339.06;;;14.29;100.00
53300;BME280;39187;48.476;8.310;2023-05-23T05:36:38;91341.88;;;14.38;100.00
53300;BME280;39187;48.476;8.310;2023-05-23T05:39:10;91334.34;;;14.33;100.00
53300;BME280;39187;48.476;8.310;2023-05-23T05:41:36;91340.63;;;14.04;100.00
53300;BME280;39187;48.476;8.310;2023-05-23T05:44:01;91344.25;;;14.11;100.00
53300;BME280;39187;48.476;8.310;2023-05-23T05:46:27;91340.28;;;14.02;100.00
53300;BME280;39187;48.476;8.310;2023-05-23T05:48:52;91339.88;;;13.91;100.00
53300;BME280;39187;48.476;8.310;2023-05-23T05:51:18;91342.34;;;13.98;100.00
53300;BME280;39187;48.476;8.310;2023-05-23T05:53:43;91340.25;;;13.68;100.00
53300;BME280;39187;48.476;8.310;2023-05-23T05:56:09;91347.19;;;13.78;100.00
53300;BME280;39187;48.476;8.310;2023-05-23T05:58:34;91338.09;;;13.88;100.00
53300;BME280;39187;48.476;8.310;2023-05-23T06:01:00;91349.44;;;13.54;100.00
53300;BME280;39187;48.476;8.310;2023-05-23T06:03:25;91346.00;;;13.79;100.00
53300;BME280;39187;48.476;8.310;2023-05-23T06:05:51;91344.72;;;13.84;100.00
53300;BME280;39187;48.476;8.310;2023-05-23T06:08:17;91349.66;;;13.60;100.00
53300;BME280;39187;48.476;8.310;2023-05-23T06:10:42;91349.31;;;13.58;100.00
53300;BME280;39187;48.476;8.310;2023-05-23T06:13:08;91348.34;;;13.39;100.00
53300;BME280;39187;48.476;8.310;2023-05-23T06:15:33;91352.63;;;13.24;100.00
53300;BME280;39187;48.476;8.310;2023-05-23T06:17:59;91350.47;;;13.19;100.00
53300;BME280;39187;48.476;8.310;2023-05-23T06:20:24;91339.38;;;13.46;100.00
53300;BME280;39187;48.476;8.310;2023-05-23T06:22:50;91344.16;;;13.25;100.00
53300;BME280;39187;48.476;8.310;2023-05-23T06:25:15;91342.72;;;13.50;100.00
53300;BME280;39187;48.476;8.310;2023-05-23T06:27:41;91338.09;;;13.76;100.00
53300;BME280;39187;48.476;8.310;2023-05-23T06:30:07;91338.41;;;13.78;100.00
53300;BME280;39187;48.476;8.310;2023-05-23T06:32:32;91347.38;;;13.96;100.00
53300;BME280;39187;48.476;8.310;2023-05-23T06:34:58;91343.91;;;14.09;100.00
53300;BME280;39187;48.476;8.310;2023-05-23T06:37:24;91344.94;;;13.77;100.00
53300;BME280;39187;48.476;8.310;2023-05-23T06:39:49;91345.25;;;13.66;100.00
53300;BME280;39187;48.476;8.310;2023-05-23T06:42:15;91348.16;;;13.72;100.00
53300;BME280;39187;48.476;8.310;2023-05-23T06:44:40;91352.72;;;13.84;100.00
53300;BME280;39187;48.476;8.310;2023-05-23T06:47:06;91359.50;;;13.76;100.00
53300;BME280;39187;48.476;8.310;2023-05-23T06:49:31;91355.63;;;13.89;100.00
53300;BME280;39187;48.476;8.310;2023-05-23T06:51:57;91366.75;;;14.00;100.00
53300;BME280;39187;48.476;8.310;2023-05-23T06:54:22;91365.34;;;13.83;100.00
53300;BME280;39187;48.476;8.310;2023-05-23T06:56:48;91365.91;;;13.91;100.00
53300;BME280;39187;48.476;8.310;2023-05-23T06:59:13;91368.56;;;14.03;100.00
53300;BME280;39187;48.476;8.310;2023-05-23T07:01:39;91374.75;;;14.26;100.00
53300;BME280;39187;48.476;8.310;2023-05-23T07:04:04;91372.25;;;14.31;100.00
53300;BME280;39187;48.476;8.310;2023-05-23T07:06:30;91378.41;;;14.66;100.00
53300;BME280;39187;48.476;8.310;2023-05-23T07:08:56;91372.03;;;14.51;100.00
53300;BME280;39187;48.476;8.310;2023-05-23T07:11:22;91376.25;;;14.39;100.00
53300;BME280;39187;48.476;8.310;2023-05-23T07:13:48;91385.22;;;14.46;100.00
53300;BME280;39187;48.476;8.310;2023-05-23T07:16:14;91382.56;;;14.20;100.00
53300;BME280;39187;48.476;8.310;2023-05-23T07:18:39;91384.38;;;14.23;100.00
53300;BME280;39187;48.476;8.310;2023-05-23T07:21:05;91389.19;;;14.41;100.00
53300;BME280;39187;48.476;8.310;2023-05-23T07:23:34;91385.06;;;14.62;100.00
53300;BME280;39187;48.476;8.310;2023-05-23T07:26:00;91388.53;;;14.84;100.00
53300;BME280;39187;48.476;8.310;2023-05-23T07:28:26;91385.16;;;14.71;100.00
53300;BME280;39187;48.476;8.310;2023-05-23T07:30:52;91394.69;;;14.72;100.00
53300;BME280;39187;48.476;8.310;2023-05-23T07:33:18;91394.97;;;14.74;100.00
53300;BME280;39187;48.476;8.310;2023-05-23T07:35:46;91390.47;;;14.83;100.00
53300;BME280;39187;48.476;8.310;2023-05-23T07:38:12;91393.19;;;14.71;100.00
53300;BME280;39187;48.476;8.310;2023-05-23T07:40:37;91395.94;;;14.80;100.00
53300;BME280;39187;48.476;8.310;2023-05-23T07:43:04;91391.06;;;14.66;100.00
53300;BME280;39187;48.476;8.310;2023-05-23T07:45:29;91372.38;;;14.75;100.00
53300;BME280;39187;48.476;8.310;2023-05-23T07:47:55;91381.91;;;14.76;100.00
53300;BME280;39187;48.476;8.310;2023-05-23T07:50:20;91393.53;;;14.60;100.00
53300;BME280;39187;48.476;8.310;2023-05-23T07:52:46;91392.78;;;14.60;100.00
53300;BME280;39187;48.476;8.310;2023-05-23T07:55:12;91390.97;;;14.91;100.00
53300;BME280;39187;48.476;8.310;2023-05-23T07:57:37;91386.09;;;14.99;100.00
53300;BME280;39187;48.476;8.310;2023-05-23T08:00:03;91379.03;;;14.92;100.00
53300;BME280;39187;48.476;8.310;2023-05-23T08:02:30;91384.16;;;14.77;100.00
53300;BME280;39187;48.476;8.310;2023-05-23T08:04:56;91384.97;;;14.65;100.00
53300;BME280;39187;48.476;8.310;2023-05-23T08:07:21;91391.06;;;14.53;100.00
53300;BME280;39187;48.476;8.310;2023-05-23T08:09:47;91394.94;;;14.87;100.00
53300;BME280;39187;48.476;8.310;2023-05-23T08:12:13;91394.03;;;15.02;100.00
53300;BME280;39187;48.476;8.310;2023-05-23T08:14:39;91391.09;;;15.09;100.00
53300;BME280;39187;48.476;8.310;2023-05-23T08:17:04;91395.91;;;15.14;100.00
53300;BME280;39187;48.476;8.310;2023-05-23T08:19:30;91393.13;;;15.49;100.00
53300;BME280;39187;48.476;8.310;2023-05-23T08:21:55;91399.00;;;15.13;100.00
53300;BME280;39187;48.476;8.310;2023-05-23T08:24:21;91403.22;;;14.79;100.00
53300;BME280;39187;48.476;8.310;2023-05-23T08:26:47;91404.09;;;14.76;100.00
53300;BME280;39187;48.476;8.310;2023-05-23T08:29:13;91400.75;;;15.07;100.00
53300;BME280;39187;48.476;8.310;2023-05-23T08:31:39;91394.38;;;14.92;100.00
53300;BME280;39187;48.476;8.310;2023-05-23T08:34:05;91401.38;;;14.29;100.00
53300;BME280;39187;48.476;8.310;2023-05-23T08:36:31;91400.16;;;14.68;100.00
53300;BME280;39187;48.476;8.310;2023-05-23T08:38:58;91404.09;;;14.98;100.00
53300;BME280;39187;48.476;8.310;2023-05-23T08:41:23;91408.31;;;15.21;100.00
53300;BME280;39187;48.476;8.310;2023-05-23T08:43:50;91412.38;;;14.69;100.00
53300;BME280;39187;48.476;8.310;2023-05-23T08:46:16;91417.22;;;14.62;100.00
53300;BME280;39187;48.476;8.310;2023-05-23T08:48:42;91419.25;;;14.58;100.00
53300;BME280;39187;48.476;8.310;2023-05-23T08:51:09;91414.75;;;14.55;100.00
53300;BME280;39187;48.476;8.310;2023-05-23T08:53:40;91424.94;;;14.47;100.00
53300;BME280;39187;48.476;8.310;2023-05-23T08:56:08;91423.75;;;14.61;100.00
53300;BME280;39187;48.476;8.310;2023-05-23T08:58:34;91422.56;;;14.62;100.00
53300;BME280;39187;48.476;8.310;2023-05-23T09:01:00;91427.63;;;14.47;100.00
53300;BME280;39187;48.476;8.310;2023-05-23T09:03:26;91427.13;;;14.27;100.00
53300;BME280;39187;48.476;8.310;2023-05-23T09:05:56;91431.19;;;14.19;100.00
53300;BME280;39187;48.476;8.310;2023-05-23T09:08:22;91434.63;;;14.07;100.00
53300;BME280;39187;48.476;8.310;2023-05-23T09:10:51;91429.91;;;14.11;100.00
53300;BME280;39187;48.476;8.310;2023-05-23T09:13:17;91429.81;;;13.89;100.00
53300;BME280;39187;48.476;8.310;2023-05-23T09:18:37;91427.56;;;14.00;100.00
53300;BME280;39187;48.476;8.310;2023-05-23T09:21:03;91433.19;;;13.77;100.00
53300;BME280;39187;48.476;8.310;2023-05-23T09:23:30;91437.16;;;13.59;100.00
53300;BME280;39187;48.476;8.310;2023-05-23T09:28:24;91432.38;;;13.80;100.00
53300;BME280;39187;48.476;8.310;2023-05-23T09:31:00;91431.72;;;14.14;100.00
53300;BME280;39187;48.476;8.310;2023-05-23T09:33:49;91429.88;;;14.49;100.00
53300;BME280;39187;48.476;8.310;2023-05-23T09:36:15;91434.72;;;14.41;100.00
53300;BME280;39187;48.476;8.310;2023-05-23T09:38:43;91432.19;;;14.72;100.00
53300;BME280;39187;48.476;8.310;2023-05-23T09:41:11;91442.88;;;14.84;100.00
53300;BME280;39187;48.476;8.310;2023-05-23T09:43:38;91448.56;;;15.08;100.00
53300;BME280;39187;48.476;8.310;2023-05-23T09:46:12;91446.50;;;14.91;100.00
53300;BME280;39187;48.476;8.310;2023-05-23T09:48:37;91444.47;;;15.38;100.00
53300;BME280;39187;48.476;8.310;2023-05-23T09:51:09;91450.38;;;14.90;100.00
53300;BME280;39187;48.476;8.310;2023-05-23T09:53:35;91449.44;;;14.71;100.00
53300;BME280;39187;48.476;8.310;2023-05-23T09:56:03;91450.34;;;14.30;100.00
53300;BME280;39187;48.476;8.310;2023-05-23T09:58:32;91448.94;;;14.63;100.00
53300;BME280;39187;48.476;8.310;2023-05-23T10:01:02;91445.63;;;14.94;100.00
53300;BME280;39187;48.476;8.310;2023-05-23T10:03:47;91439.34;;;15.31;100.00
53300;BME280;39187;48.476;8.310;2023-05-23T10:06:42;91448.63;;;15.83;100.00
53300;BME280;39187;48.476;8.310;2023-05-23T10:09:16;91448.59;;;15.74;100.00
53300;BME280;39187;48.476;8.310;2023-05-23T10:14:44;91447.38;;;15.96;100.00
53300;BME280;39187;48.476;8.310;2023-05-23T10:17:51;91446.78;;;16.01;100.00
53300;BME280;39187;48.476;8.310;2023-05-23T10:20:24;91451.31;;;16.14;100.00
53300;BME280;39187;48.476;8.310;2023-05-23T10:22:51;91441.56;;;15.98;100.00
53300;BME280;39187;48.476;8.310;2023-05-23T10:25:17;91449.59;;;16.29;100.00
53300;BME280;39187;48.476;8.310;2023-05-23T10:27:43;91450.06;;;16.36;100.00
53300;BME280;39187;48.476;8.310;2023-05-23T10:30:12;91439.19;;;17.07;97.76
53300;BME280;39187;48.476;8.310;2023-05-23T10:32:38;91439.72;;;16.66;94.08
53300;BME280;39187;48.476;8.310;2023-05-23T10:35:49;91437.66;;;16.79;93.02
53300;BME280;39187;48.476;8.310;2023-05-23T10:38:25;91440.94;;;16.74;95.18
53300;BME280;39187;48.476;8.310;2023-05-23T10:46:19;91431.97;;;17.59;89.78
53300;BME280;39187;48.476;8.310;2023-05-23T10:48:46;91437.47;;;18.34;86.37
53300;BME280;39187;48.476;8.310;2023-05-23T10:51:15;91440.25;;;18.81;85.92
53300;BME280;39187;48.476;8.310;2023-05-23T10:53:44;91444.00;;;18.09;81.54
53300;BME280;39187;48.476;8.310;2023-05-23T10:56:20;91444.69;;;18.19;83.75
53300;BME280;39187;48.476;8.310;2023-05-23T10:58:55;91443.81;;;18.13;81.12
53300;BME280;39187;48.476;8.310;2023-05-23T11:01:23;91446.19;;;18.20;83.55
53300;BME280;39187;48.476;8.310;2023-05-23T11:03:53;91447.59;;;18.06;82.45
53300;BME280;39187;48.476;8.310;2023-05-23T11:06:32;91439.38;;;18.00;84.07
53300;BME280;39187;48.476;8.310;2023-05-23T11:09:13;91442.31;;;18.54;80.84
53300;BME280;39187;48.476;8.310;2023-05-23T11:12:05;91440.69;;;18.80;80.01
53300;BME280;39187;48.476;8.310;2023-05-23T11:14:31;91431.56;;;18.77;80.11
53300;BME280;39187;48.476;8.310;2023-05-23T11:17:17;91427.84;;;18.99;75.37
53300;BME280;39187;48.476;8.310;2023-05-23T11:20:05;91435.50;;;18.34;78.72
53300;BME280;39187;48.476;8.310;2023-05-23T11:22:32;91439.28;;;17.77;83.06
53300;BME280;39187;48.476;8.310;2023-05-23T11:24:59;91431.69;;;17.39;85.86
53300;BME280;39187;48.476;8.310;2023-05-23T11:27:37;91436.19;;;17.05;85.95
53300;BME280;39187;48.476;8.310;2023-05-23T11:30:13;91434.66;;;16.86;88.60
53300;BME280;39187;48.476;8.310;2023-05-23T11:32:39;91439.47;;;17.00;87.63
53300;BME280;39187;48.476;8.310;2023-05-23T11:35:08;91440.94;;;17.29;87.70
53300;BME280;39187;48.476;8.310;2023-05-23T11:37:34;91433.78;;;17.26;85.46
53300;BME280;39187;48.476;8.310;2023-05-23T11:40:30;91435.00;;;17.15;85.78
53300;BME280;39187;48.476;8.310;2023-05-23T11:42:57;91435.88;;;16.94;88.00
53300;BME280;39187;48.476;8.310;2023-05-23T11:45:24;91429.72;;;16.84;88.98
53300;BME280;39187;48.476;8.310;2023-05-23T11:47:51;91432.09;;;16.64;89.56
53300;BME280;39187;48.476;8.310;2023-05-23T11:50:17;91428.41;;;16.80;89.28
53300;BME280;39187;48.476;8.310;2023-05-23T11:52:45;91433.91;;;16.86;88.27
53300;BME280;39187;48.476;8.310;2023-05-23T11:55:19;91438.72;;;16.81;89.78
53300;BME280;39187;48.476;8.310;2023-05-23T11:57:45;91436.00;;;16.81;89.30
53300;BME280;39187;48.476;8.310;2023-05-23T12:00:13;91434.44;;;16.44;90.94
53300;BME280;39187;48.476;8.310;2023-05-23T12:02:43;91429.56;;;16.21;92.38
53300;BME280;39187;48.476;8.310;2023-05-23T12:05:11;91435.25;;;16.23;92.62
53300;BME280;39187;48.476;8.310;2023-05-23T12:07:49;91425.63;;;16.53;92.44
53300;BME280;39187;48.476;8.310;2023-05-23T12:10:16;91426.38;;;16.53;91.83
53300;BME280;39187;48.476;8.310;2023-05-23T12:12:43;91418.97;;;16.84;93.43
53300;BME280;39187;48.476;8.310;2023-05-23T12:15:10;91420.94;;;17.11;90.85
53300;BME280;39187;48.476;8.310;2023-05-23T12:17:44;91426.16;;;17.51;88.63
53300;BME280;39187;48.476;8.310;2023-05-23T12:20:14;91427.94;;;17.36;86.48
53300;BME280;39187;48.476;8.310;2023-05-23T12:22:41;91417.34;;;17.33;87.80
53300;BME280;39187;48.476;8.310;2023-05-23T12:25:10;91414.94;;;17.35;87.32
53300;BME280;39187;48.476;8.310;2023-05-23T12:27:38;91415.69;;;17.35;86.95
53300;BME280;39187;48.476;8.310;2023-05-23T12:30:14;91426.47;;;17.44;85.43
53300;BME280;39187;48.476;8.310;2023-05-23T12:32:45;91420.78;;;17.06;88.49
53300;BME280;39187;48.476;8.310;2023-05-23T12:35:13;91423.31;;;17.09;86.37
53300;BME280;39187;48.476;8.310;2023-05-23T12:37:42;91424.38;;;16.94;86.13
53300;BME280;39187;48.476;8.310;2023-05-23T12:40:13;91430.78;;;16.78;85.97
53300;BME280;39187;48.476;8.310;2023-05-23T12:42:55;91432.59;;;16.32;88.32
53300;BME280;39187;48.476;8.310;2023-05-23T12:45:23;91422.03;;;15.97;90.36
53300;BME280;39187;48.476;8.310;2023-05-23T12:47:54;91433.38;;;16.01;93.44
53300;BME280;39187;48.476;8.310;2023-05-23T12:50:21;91429.63;;;15.99;90.31
53300;BME280;39187;48.476;8.310;2023-05-23T12:52:46;91425.22;;;16.14;89.89
53300;BME280;39187;48.476;8.310;2023-05-23T12:55:12;91421.78;;;15.83;92.09
53300;BME280;39187;48.476;8.310;2023-05-23T12:57:38;91425.22;;;15.83;90.50
53300;BME280;39187;48.476;8.310;2023-05-23T13:00:06;91418.72;;;15.93;91.66
53300;BME280;39187;48.476;8.310;2023-05-23T13:02:32;91421.16;;;16.10;93.00
53300;BME280;39187;48.476;8.310;2023-05-23T13:04:58;91429.69;;;15.77;91.92
53300;BME280;39187;48.476;8.310;2023-05-23T13:07:23;91416.09;;;15.72;91.13
53300;BME280;39187;48.476;8.310;2023-05-23T13:09:49;91421.59;;;16.08;90.62
53300;BME280;39187;48.476;8.310;2023-05-23T13:12:15;91424.22;;;15.90;89.53
53300;BME280;39187;48.476;8.310;2023-05-23T13:14:41;91425.97;;;15.84;89.07
53300;BME280;39187;48.476;8.310;2023-05-23T13:17:06;91431.38;;;15.62;89.65